ロンドン/ヒースロー の空港の天気 - METARとTAF

ロンドン・ヒースロー空港 ( EGLL / LHR ) - イギリス ロンドン
飛行場実況気象(Metar)
観測時間05/26 17:20 BST (05/26 16:20 UTC)
風向・風速西南西 8m/s
視程10km以上
天気現象
全天の8割程度の雲 雲底高度 880m
全天の8割程度の雲 雲底高度 1190m
気温20℃
湿度60%
気圧1021hPa
METAREGLL 261620Z AUTO 25015KT 9999 BKN029 BKN039 20/12 Q1021
過去の天気等 Google飛行場航空写真 Wunderground天気予報

過去48時間のMETAR

飛行場予報(TAF)
発表時間: 5/26 12:03 BST (5/26 11:03 UTC)
予報対象時間: 26日13時 BST ~ 27日19時 BST
風向・風速西 6m/s
視程10km以上
全天の4割程度の雲 雲底高度 910m
26日13時 BST ~ 26日19時 BST に一時的に
風向・風速西 8m/s 瞬間風速 13m/s
26日21時 BST ~ 27日1時 BST に 確率 30% で一時的に
全天の8割程度の雲 雲底高度 370m
27日16時 BST ~ 27日19時 BST に徐々に
風向・風速北北西 5m/s
TAF EGLL 261103Z 2612/2718 26012KT 9999 SCT030
TEMPO 2612/2618 27015G25KT
PROB30 TEMPO 2620/2624 BKN012
BECMG 2715/2718 33010KT